sensor_id;sensor_type;location;lat;lon;timestamp;temperature;humidity
14378;DHT22;7272;53.668;9.578;2022-09-17T00:02:37;14.40;99.90
14378;DHT22;7272;53.668;9.578;2022-09-17T00:05:39;14.40;99.90
14378;DHT22;7272;53.668;9.578;2022-09-17T00:08:41;14.30;99.90
14378;DHT22;7272;53.668;9.578;2022-09-17T00:11:43;14.30;99.90
14378;DHT22;7272;53.668;9.578;2022-09-17T00:14:46;14.20;99.90
14378;DHT22;7272;53.668;9.578;2022-09-17T00:17:53;14.20;99.90
14378;DHT22;7272;53.668;9.578;2022-09-17T00:20:57;14.10;99.90
14378;DHT22;7272;53.668;9.578;2022-09-17T00:24:00;14.20;99.90
14378;DHT22;7272;53.668;9.578;2022-09-17T00:27:03;14.20;99.90
14378;DHT22;7272;53.668;9.578;2022-09-17T00:30:08;14.10;99.90
14378;DHT22;7272;53.668;9.578;2022-09-17T00:33:11;14.00;99.90
14378;DHT22;7272;53.668;9.578;2022-09-17T00:36:13;14.00;99.90
14378;DHT22;7272;53.668;9.578;2022-09-17T00:39:15;13.90;99.90
14378;DHT22;7272;53.668;9.578;2022-09-17T00:42:18;13.80;99.90
14378;DHT22;7272;53.668;9.578;2022-09-17T00:45:22;13.80;99.90
14378;DHT22;7272;53.668;9.578;2022-09-17T00:48:25;13.80;99.90
14378;DHT22;7272;53.668;9.578;2022-09-17T00:51:36;13.90;99.90
14378;DHT22;7272;53.668;9.578;2022-09-17T00:54:43;13.90;99.90
14378;DHT22;7272;53.668;9.578;2022-09-17T00:57:47;13.90;99.90
14378;DHT22;7272;53.668;9.578;2022-09-17T01:00:51;13.90;99.90
14378;DHT22;7272;53.668;9.578;2022-09-17T01:03:53;13.90;99.90
14378;DHT22;7272;53.668;9.578;2022-09-17T01:07:02;13.80;99.90
14378;DHT22;7272;53.668;9.578;2022-09-17T01:10:17;13.80;99.90
14378;DHT22;7272;53.668;9.578;2022-09-17T01:13:30;13.80;99.90
14378;DHT22;7272;53.668;9.578;2022-09-17T01:16:41;13.70;99.90
14378;DHT22;7272;53.668;9.578;2022-09-17T01:20:21;13.70;99.90
14378;DHT22;7272;53.668;9.578;2022-09-17T01:34:22;13.80;99.90
14378;DHT22;7272;53.668;9.578;2022-09-17T01:37:30;13.70;99.90
14378;DHT22;7272;53.668;9.578;2022-09-17T01:40:39;13.60;99.90
14378;DHT22;7272;53.668;9.578;2022-09-17T01:43:45;13.60;99.90
14378;DHT22;7272;53.668;9.578;2022-09-17T01:46:53;13.60;99.90
14378;DHT22;7272;53.668;9.578;2022-09-17T01:50:01;13.60;99.90
14378;DHT22;7272;53.668;9.578;2022-09-17T01:53:06;13.60;99.90
14378;DHT22;7272;53.668;9.578;2022-09-17T01:56:10;13.70;99.90
14378;DHT22;7272;53.668;9.578;2022-09-17T01:59:17;13.70;99.90
14378;DHT22;7272;53.668;9.578;2022-09-17T02:02:26;13.70;99.90
14378;DHT22;7272;53.668;9.578;2022-09-17T02:05:34;13.70;99.90
14378;DHT22;7272;53.668;9.578;2022-09-17T02:08:41;13.70;99.90
14378;DHT22;7272;53.668;9.578;2022-09-17T02:11:47;13.60;99.90
14378;DHT22;7272;53.668;9.578;2022-09-17T02:14:53;13.60;99.90
14378;DHT22;7272;53.668;9.578;2022-09-17T02:18:04;13.60;99.90
14378;DHT22;7272;53.668;9.578;2022-09-17T02:21:12;13.60;99.90
14378;DHT22;7272;53.668;9.578;2022-09-17T02:24:17;13.80;99.90
14378;DHT22;7272;53.668;9.578;2022-09-17T02:27:27;13.90;99.90
14378;DHT22;7272;53.668;9.578;2022-09-17T02:30:32;13.80;99.90
14378;DHT22;7272;53.668;9.578;2022-09-17T02:33:36;13.80;99.90
14378;DHT22;7272;53.668;9.578;2022-09-17T02:36:38;13.70;99.90
14378;DHT22;7272;53.668;9.578;2022-09-17T02:39:41;13.70;99.90
14378;DHT22;7272;53.668;9.578;2022-09-17T02:42:55;13.60;99.90
14378;DHT22;7272;53.668;9.578;2022-09-17T02:46:13;13.60;99.90
14378;DHT22;7272;53.668;9.578;2022-09-17T02:49:36;13.60;99.90
14378;DHT22;7272;53.668;9.578;2022-09-17T02:52:48;13.50;99.90
14378;DHT22;7272;53.668;9.578;2022-09-17T02:56:00;13.60;99.90
14378;DHT22;7272;53.668;9.578;2022-09-17T02:59:13;13.60;99.90
14378;DHT22;7272;53.668;9.578;2022-09-17T03:02:20;13.50;99.90
14378;DHT22;7272;53.668;9.578;2022-09-17T03:05:25;13.50;99.90
14378;DHT22;7272;53.668;9.578;2022-09-17T03:08:29;13.50;99.90
14378;DHT22;7272;53.668;9.578;2022-09-17T03:11:33;13.50;99.90
14378;DHT22;7272;53.668;9.578;2022-09-17T03:14:35;13.40;99.90
14378;DHT22;7272;53.668;9.578;2022-09-17T03:17:36;13.30;99.90
14378;DHT22;7272;53.668;9.578;2022-09-17T03:20:40;13.20;99.90
14378;DHT22;7272;53.668;9.578;2022-09-17T03:23:42;13.20;99.90
14378;DHT22;7272;53.668;9.578;2022-09-17T03:26:43;13.20;99.90
14378;DHT22;7272;53.668;9.578;2022-09-17T03:29:47;13.10;99.90
14378;DHT22;7272;53.668;9.578;2022-09-17T03:32:48;13.00;99.90
14378;DHT22;7272;53.668;9.578;2022-09-17T03:35:52;12.90;99.90
14378;DHT22;7272;53.668;9.578;2022-09-17T03:38:54;12.90;99.90
14378;DHT22;7272;53.668;9.578;2022-09-17T03:41:56;12.80;99.90
14378;DHT22;7272;53.668;9.578;2022-09-17T03:44:58;12.80;99.90
14378;DHT22;7272;53.668;9.578;2022-09-17T03:48:00;12.80;99.90
14378;DHT22;7272;53.668;9.578;2022-09-17T03:51:04;12.80;99.90
14378;DHT22;7272;53.668;9.578;2022-09-17T03:54:06;12.80;99.90
14378;DHT22;7272;53.668;9.578;2022-09-17T03:57:08;12.80;99.90
14378;DHT22;7272;53.668;9.578;2022-09-17T04:00:11;12.80;99.90
14378;DHT22;7272;53.668;9.578;2022-09-17T04:03:15;12.80;99.90
14378;DHT22;7272;53.668;9.578;2022-09-17T04:06:18;12.80;99.90
14378;DHT22;7272;53.668;9.578;2022-09-17T04:09:20;12.80;99.90
14378;DHT22;7272;53.668;9.578;2022-09-17T04:12:22;12.80;99.90
14378;DHT22;7272;53.668;9.578;2022-09-17T04:15:24;12.70;99.90
14378;DHT22;7272;53.668;9.578;2022-09-17T04:18:25;12.70;99.90
14378;DHT22;7272;53.668;9.578;2022-09-17T04:21:29;12.60;99.90
14378;DHT22;7272;53.668;9.578;2022-09-17T04:24:30;12.70;99.90
14378;DHT22;7272;53.668;9.578;2022-09-17T04:27:32;12.70;99.90
14378;DHT22;7272;53.668;9.578;2022-09-17T04:30:34;12.70;99.90
14378;DHT22;7272;53.668;9.578;2022-09-17T04:33:36;12.70;99.90
14378;DHT22;7272;53.668;9.578;2022-09-17T04:36:39;12.80;99.90
14378;DHT22;7272;53.668;9.578;2022-09-17T04:39:41;12.90;99.90
14378;DHT22;7272;53.668;9.578;2022-09-17T04:42:43;12.90;99.90
14378;DHT22;7272;53.668;9.578;2022-09-17T04:45:45;13.00;99.90
14378;DHT22;7272;53.668;9.578;2022-09-17T04:48:47;13.00;99.90
14378;DHT22;7272;53.668;9.578;2022-09-17T04:51:50;13.00;99.90
14378;DHT22;7272;53.668;9.578;2022-09-17T04:54:52;13.00;99.90
14378;DHT22;7272;53.668;9.578;2022-09-17T04:57:54;13.00;99.90
14378;DHT22;7272;53.668;9.578;2022-09-17T05:00:56;13.00;99.90
14378;DHT22;7272;53.668;9.578;2022-09-17T05:03:58;12.90;99.90
14378;DHT22;7272;53.668;9.578;2022-09-17T05:07:01;12.90;99.90
14378;DHT22;7272;53.668;9.578;2022-09-17T05:10:03;12.90;99.90
14378;DHT22;7272;53.668;9.578;2022-09-17T05:13:05;13.00;99.90
14378;DHT22;7272;53.668;9.578;2022-09-17T05:16:07;13.00;99.90
14378;DHT22;7272;53.668;9.578;2022-09-17T05:19:09;13.00;99.90
14378;DHT22;7272;53.668;9.578;2022-09-17T05:22:13;13.00;99.90
14378;DHT22;7272;53.668;9.578;2022-09-17T05:25:17;12.90;99.90
14378;DHT22;7272;53.668;9.578;2022-09-17T05:28:19;13.00;99.90
14378;DHT22;7272;53.668;9.578;2022-09-17T05:31:21;12.90;99.90
14378;DHT22;7272;53.668;9.578;2022-09-17T05:34:23;12.80;99.90
14378;DHT22;7272;53.668;9.578;2022-09-17T05:37:26;12.80;99.90
14378;DHT22;7272;53.668;9.578;2022-09-17T05:40:28;12.80;99.90
14378;DHT22;7272;53.668;9.578;2022-09-17T05:43:30;12.70;99.90
14378;DHT22;7272;53.668;9.578;2022-09-17T05:46:32;12.70;99.90
14378;DHT22;7272;53.668;9.578;2022-09-17T05:49:34;12.70;99.90
14378;DHT22;7272;53.668;9.578;2022-09-17T05:52:37;12.60;99.90
14378;DHT22;7272;53.668;9.578;2022-09-17T05:55:39;12.50;99.90
14378;DHT22;7272;53.668;9.578;2022-09-17T05:58:41;12.70;99.90
14378;DHT22;7272;53.668;9.578;2022-09-17T06:01:43;12.80;99.90
14378;DHT22;7272;53.668;9.578;2022-09-17T06:04:45;12.70;99.90
14378;DHT22;7272;53.668;9.578;2022-09-17T06:07:49;12.60;99.90
14378;DHT22;7272;53.668;9.578;2022-09-17T06:10:51;12.60;99.90
14378;DHT22;7272;53.668;9.578;2022-09-17T06:13:53;12.70;99.90
14378;DHT22;7272;53.668;9.578;2022-09-17T06:16:55;12.70;99.90
14378;DHT22;7272;53.668;9.578;2022-09-17T06:19:57;12.60;99.90
14378;DHT22;7272;53.668;9.578;2022-09-17T06:23:00;12.50;99.90
14378;DHT22;7272;53.668;9.578;2022-09-17T06:26:03;12.50;99.90
14378;DHT22;7272;53.668;9.578;2022-09-17T06:29:05;12.50;99.90
14378;DHT22;7272;53.668;9.578;2022-09-17T06:32:07;12.60;99.90
14378;DHT22;7272;53.668;9.578;2022-09-17T06:35:12;12.50;99.90
14378;DHT22;7272;53.668;9.578;2022-09-17T06:38:15;12.40;99.90
14378;DHT22;7272;53.668;9.578;2022-09-17T06:41:17;12.40;99.90
14378;DHT22;7272;53.668;9.578;2022-09-17T06:44:19;12.30;99.90
14378;DHT22;7272;53.668;9.578;2022-09-17T06:47:23;12.30;99.90
14378;DHT22;7272;53.668;9.578;2022-09-17T06:50:25;12.30;99.90
14378;DHT22;7272;53.668;9.578;2022-09-17T06:53:28;12.30;99.90
14378;DHT22;7272;53.668;9.578;2022-09-17T06:56:30;12.40;99.90
14378;DHT22;7272;53.668;9.578;2022-09-17T06:59:33;12.40;99.90
14378;DHT22;7272;53.668;9.578;2022-09-17T07:02:35;12.50;99.90
14378;DHT22;7272;53.668;9.578;2022-09-17T07:05:37;12.60;99.90
14378;DHT22;7272;53.668;9.578;2022-09-17T07:08:40;12.90;99.90
14378;DHT22;7272;53.668;9.578;2022-09-17T07:11:43;13.00;99.90
14378;DHT22;7272;53.668;9.578;2022-09-17T07:14:45;13.10;99.90
14378;DHT22;7272;53.668;9.578;2022-09-17T07:17:47;13.10;99.90
14378;DHT22;7272;53.668;9.578;2022-09-17T07:20:53;13.00;99.90
14378;DHT22;7272;53.668;9.578;2022-09-17T07:23:57;13.00;99.90
14378;DHT22;7272;53.668;9.578;2022-09-17T07:26:59;13.00;99.90
14378;DHT22;7272;53.668;9.578;2022-09-17T07:30:01;13.10;99.90
14378;DHT22;7272;53.668;9.578;2022-09-17T07:33:03;13.10;99.90
14378;DHT22;7272;53.668;9.578;2022-09-17T07:36:07;13.10;99.90
14378;DHT22;7272;53.668;9.578;2022-09-17T07:39:10;13.10;99.90
14378;DHT22;7272;53.668;9.578;2022-09-17T07:42:13;13.10;99.90
14378;DHT22;7272;53.668;9.578;2022-09-17T07:45:14;13.00;99.90
14378;DHT22;7272;53.668;9.578;2022-09-17T07:48:16;13.00;99.90
14378;DHT22;7272;53.668;9.578;2022-09-17T07:51:19;13.00;99.90
14378;DHT22;7272;53.668;9.578;2022-09-17T07:54:23;13.00;99.90
14378;DHT22;7272;53.668;9.578;2022-09-17T07:57:26;13.20;99.90
14378;DHT22;7272;53.668;9.578;2022-09-17T08:00:27;13.50;99.90
14378;DHT22;7272;53.668;9.578;2022-09-17T08:03:29;13.80;99.90
14378;DHT22;7272;53.668;9.578;2022-09-17T08:06:36;14.20;99.90
14378;DHT22;7272;53.668;9.578;2022-09-17T08:09:39;14.40;99.90
14378;DHT22;7272;53.668;9.578;2022-09-17T08:12:41;14.60;99.90
14378;DHT22;7272;53.668;9.578;2022-09-17T08:15:43;14.70;99.90
14378;DHT22;7272;53.668;9.578;2022-09-17T08:18:45;14.50;99.90
14378;DHT22;7272;53.668;9.578;2022-09-17T08:21:47;14.30;99.90
14378;DHT22;7272;53.668;9.578;2022-09-17T08:24:51;14.40;99.90
14378;DHT22;7272;53.668;9.578;2022-09-17T08:27:53;14.60;99.90
14378;DHT22;7272;53.668;9.578;2022-09-17T08:30:59;14.70;99.90
14378;DHT22;7272;53.668;9.578;2022-09-17T08:34:06;14.60;99.90
14378;DHT22;7272;53.668;9.578;2022-09-17T08:37:08;14.50;99.90
14378;DHT22;7272;53.668;9.578;2022-09-17T08:40:15;14.30;99.90
14378;DHT22;7272;53.668;9.578;2022-09-17T08:43:18;14.30;99.90
14378;DHT22;7272;53.668;9.578;2022-09-17T08:46:20;14.30;99.90
14378;DHT22;7272;53.668;9.578;2022-09-17T08:49:29;14.10;99.90
14378;DHT22;7272;53.668;9.578;2022-09-17T08:52:47;13.90;99.90
14378;DHT22;7272;53.668;9.578;2022-09-17T08:55:59;13.90;99.90
14378;DHT22;7272;53.668;9.578;2022-09-17T08:59:13;14.00;99.90
14378;DHT22;7272;53.668;9.578;2022-09-17T09:02:27;14.00;99.90
14378;DHT22;7272;53.668;9.578;2022-09-17T09:05:38;14.00;99.90
14378;DHT22;7272;53.668;9.578;2022-09-17T09:08:47;14.00;99.90
14378;DHT22;7272;53.668;9.578;2022-09-17T09:12:00;14.30;99.90
14378;DHT22;7272;53.668;9.578;2022-09-17T09:15:07;14.50;99.90
14378;DHT22;7272;53.668;9.578;2022-09-17T09:18:18;14.50;99.90
14378;DHT22;7272;53.668;9.578;2022-09-17T09:21:26;14.30;99.90
14378;DHT22;7272;53.668;9.578;2022-09-17T09:24:36;14.20;99.90
14378;DHT22;7272;53.668;9.578;2022-09-17T09:27:45;14.20;99.90
14378;DHT22;7272;53.668;9.578;2022-09-17T09:30:58;14.20;99.90
14378;DHT22;7272;53.668;9.578;2022-09-17T09:34:05;14.20;99.90
14378;DHT22;7272;53.668;9.578;2022-09-17T09:37:12;14.30;99.90
14378;DHT22;7272;53.668;9.578;2022-09-17T09:40:24;14.40;99.90
14378;DHT22;7272;53.668;9.578;2022-09-17T09:43:35;14.60;99.90
14378;DHT22;7272;53.668;9.578;2022-09-17T09:47:06;14.60;99.90
14378;DHT22;7272;53.668;9.578;2022-09-17T09:50:33;14.60;99.90
14378;DHT22;7272;53.668;9.578;2022-09-17T09:53:48;14.60;99.90
14378;DHT22;7272;53.668;9.578;2022-09-17T09:56:55;14.80;99.90
14378;DHT22;7272;53.668;9.578;2022-09-17T10:00:27;15.00;99.90
14378;DHT22;7272;53.668;9.578;2022-09-17T10:03:32;15.20;99.90
14378;DHT22;7272;53.668;9.578;2022-09-17T10:06:37;15.60;99.90
14378;DHT22;7272;53.668;9.578;2022-09-17T10:09:44;15.60;99.90
14378;DHT22;7272;53.668;9.578;2022-09-17T10:12:46;15.60;99.90
14378;DHT22;7272;53.668;9.578;2022-09-17T10:15:50;15.60;99.90
14378;DHT22;7272;53.668;9.578;2022-09-17T10:19:11;15.50;99.90
14378;DHT22;7272;53.668;9.578;2022-09-17T10:22:25;15.30;99.90
14378;DHT22;7272;53.668;9.578;2022-09-17T10:25:29;15.00;99.90
14378;DHT22;7272;53.668;9.578;2022-09-17T10:28:39;15.00;99.90
14378;DHT22;7272;53.668;9.578;2022-09-17T10:31:50;14.80;99.90
14378;DHT22;7272;53.668;9.578;2022-09-17T10:35:00;14.80;99.90
14378;DHT22;7272;53.668;9.578;2022-09-17T10:38:04;14.90;99.90
14378;DHT22;7272;53.668;9.578;2022-09-17T10:41:17;15.20;99.90
14378;DHT22;7272;53.668;9.578;2022-09-17T10:44:22;15.20;99.90
14378;DHT22;7272;53.668;9.578;2022-09-17T10:47:28;15.30;99.90
14378;DHT22;7272;53.668;9.578;2022-09-17T10:50:32;15.30;99.90
14378;DHT22;7272;53.668;9.578;2022-09-17T10:53:52;15.50;99.90
14378;DHT22;7272;53.668;9.578;2022-09-17T10:56:58;15.40;99.90
14378;DHT22;7272;53.668;9.578;2022-09-17T11:00:06;15.20;99.90
14378;DHT22;7272;53.668;9.578;2022-09-17T11:03:36;15.30;99.90
14378;DHT22;7272;53.668;9.578;2022-09-17T11:07:12;15.50;99.90
14378;DHT22;7272;53.668;9.578;2022-09-17T11:10:22;15.60;99.90
14378;DHT22;7272;53.668;9.578;2022-09-17T11:13:33;15.90;99.90
14378;DHT22;7272;53.668;9.578;2022-09-17T11:16:40;16.10;99.90
14378;DHT22;7272;53.668;9.578;2022-09-17T11:19:54;16.30;99.90
14378;DHT22;7272;53.668;9.578;2022-09-17T11:23:08;16.40;99.90
14378;DHT22;7272;53.668;9.578;2022-09-17T11:26:29;16.40;99.90
14378;DHT22;7272;53.668;9.578;2022-09-17T11:29:42;16.30;99.90
14378;DHT22;7272;53.668;9.578;2022-09-17T11:32:58;16.30;99.90
14378;DHT22;7272;53.668;9.578;2022-09-17T11:36:09;16.60;99.90
14378;DHT22;7272;53.668;9.578;2022-09-17T11:39:17;16.70;99.90
14378;DHT22;7272;53.668;9.578;2022-09-17T11:42:24;16.70;99.90
14378;DHT22;7272;53.668;9.578;2022-09-17T11:45:33;16.70;99.90
14378;DHT22;7272;53.668;9.578;2022-09-17T11:48:41;16.60;99.90
14378;DHT22;7272;53.668;9.578;2022-09-17T11:51:51;16.70;99.90
14378;DHT22;7272;53.668;9.578;2022-09-17T11:54:57;16.70;99.90
14378;DHT22;7272;53.668;9.578;2022-09-17T11:58:08;16.60;99.90
14378;DHT22;7272;53.668;9.578;2022-09-17T12:01:15;16.60;99.90
14378;DHT22;7272;53.668;9.578;2022-09-17T12:04:30;16.70;99.90
14378;DHT22;7272;53.668;9.578;2022-09-17T12:07:42;17.00;99.90
14378;DHT22;7272;53.668;9.578;2022-09-17T12:10:51;17.20;99.90
14378;DHT22;7272;53.668;9.578;2022-09-17T12:13:55;17.20;99.90
14378;DHT22;7272;53.668;9.578;2022-09-17T12:16:59;17.20;99.90
14378;DHT22;7272;53.668;9.578;2022-09-17T12:20:06;17.40;99.90
14378;DHT22;7272;53.668;9.578;2022-09-17T12:23:13;17.50;99.90
14378;DHT22;7272;53.668;9.578;2022-09-17T12:26:24;17.40;99.90
14378;DHT22;7272;53.668;9.578;2022-09-17T12:29:35;17.20;99.90
14378;DHT22;7272;53.668;9.578;2022-09-17T12:32:57;17.10;99.90
14378;DHT22;7272;53.668;9.578;2022-09-17T12:36:13;16.70;99.90
14378;DHT22;7272;53.668;9.578;2022-09-17T12:43:08;16.00;99.90
14378;DHT22;7272;53.668;9.578;2022-09-17T12:46:27;16.00;99.90
14378;DHT22;7272;53.668;9.578;2022-09-17T12:49:53;16.30;99.90
14378;DHT22;7272;53.668;9.578;2022-09-17T12:53:08;16.30;99.90
14378;DHT22;7272;53.668;9.578;2022-09-17T12:56:24;16.20;99.90
14378;DHT22;7272;53.668;9.578;2022-09-17T12:59:31;16.40;99.90
14378;DHT22;7272;53.668;9.578;2022-09-17T13:02:37;16.60;99.90
14378;DHT22;7272;53.668;9.578;2022-09-17T13:05:58;16.50;99.90
14378;DHT22;7272;53.668;9.578;2022-09-17T13:09:38;16.60;99.90
14378;DHT22;7272;53.668;9.578;2022-09-17T13:12:46;16.50;99.90
14378;DHT22;7272;53.668;9.578;2022-09-17T13:15:57;16.30;99.90
14378;DHT22;7272;53.668;9.578;2022-09-17T13:19:05;16.50;99.90
14378;DHT22;7272;53.668;9.578;2022-09-17T13:22:16;16.80;99.90
14378;DHT22;7272;53.668;9.578;2022-09-17T13:25:19;16.70;99.90
14378;DHT22;7272;53.668;9.578;2022-09-17T13:28:35;16.40;99.90
14378;DHT22;7272;53.668;9.578;2022-09-17T13:31:48;16.20;99.90
14378;DHT22;7272;53.668;9.578;2022-09-17T13:34:53;16.10;99.90
14378;DHT22;7272;53.668;9.578;2022-09-17T13:38:00;16.50;99.90
14378;DHT22;7272;53.668;9.578;2022-09-17T13:41:17;16.80;99.90
14378;DHT22;7272;53.668;9.578;2022-09-17T13:44:21;16.80;99.90
14378;DHT22;7272;53.668;9.578;2022-09-17T13:47:28;16.60;99.90
14378;DHT22;7272;53.668;9.578;2022-09-17T13:50:40;16.50;99.90
14378;DHT22;7272;53.668;9.578;2022-09-17T13:53:51;16.50;99.90
14378;DHT22;7272;53.668;9.578;2022-09-17T13:57:07;16.40;99.90
14378;DHT22;7272;53.668;9.578;2022-09-17T14:00:47;16.20;99.90
14378;DHT22;7272;53.668;9.578;2022-09-17T14:03:52;16.20;99.90
14378;DHT22;7272;53.668;9.578;2022-09-17T14:06:57;16.70;99.90
14378;DHT22;7272;53.668;9.578;2022-09-17T14:10:00;16.90;99.90
14378;DHT22;7272;53.668;9.578;2022-09-17T14:16:49;15.50;99.90
14378;DHT22;7272;53.668;9.578;2022-09-17T14:19:56;14.40;99.90
14378;DHT22;7272;53.668;9.578;2022-09-17T14:23:09;13.80;99.90
14378;DHT22;7272;53.668;9.578;2022-09-17T14:26:26;13.50;99.90
14378;DHT22;7272;53.668;9.578;2022-09-17T14:30:01;13.50;99.90
14378;DHT22;7272;53.668;9.578;2022-09-17T14:33:10;13.50;99.90
14378;DHT22;7272;53.668;9.578;2022-09-17T14:36:27;13.60;99.90
14378;DHT22;7272;53.668;9.578;2022-09-17T14:39:48;13.70;99.90
14378;DHT22;7272;53.668;9.578;2022-09-17T14:46:55;13.80;99.90
14378;DHT22;7272;53.668;9.578;2022-09-17T15:01:46;14.00;99.90
14378;DHT22;7272;53.668;9.578;2022-09-17T15:05:26;14.00;99.90
14378;DHT22;7272;53.668;9.578;2022-09-17T15:09:15;13.90;99.90
14378;DHT22;7272;53.668;9.578;2022-09-17T15:13:20;14.00;99.90
14378;DHT22;7272;53.668;9.578;2022-09-17T15:16:27;14.10;99.90
14378;DHT22;7272;53.668;9.578;2022-09-17T15:23:57;13.90;99.90
14378;DHT22;7272;53.668;9.578;2022-09-17T15:27:03;13.90;99.90
14378;DHT22;7272;53.668;9.578;2022-09-17T15:30:12;13.90;99.90
14378;DHT22;7272;53.668;9.578;2022-09-17T15:33:14;13.90;99.90
14378;DHT22;7272;53.668;9.578;2022-09-17T15:36:21;14.00;99.90
14378;DHT22;7272;53.668;9.578;2022-09-17T15:39:37;14.00;99.90
14378;DHT22;7272;53.668;9.578;2022-09-17T15:42:47;13.90;99.90
14378;DHT22;7272;53.668;9.578;2022-09-17T15:45:50;13.90;99.90
14378;DHT22;7272;53.668;9.578;2022-09-17T15:48:52;13.80;99.90
14378;DHT22;7272;53.668;9.578;2022-09-17T15:52:09;13.80;99.90
14378;DHT22;7272;53.668;9.578;2022-09-17T15:55:29;13.80;99.90
14378;DHT22;7272;53.668;9.578;2022-09-17T15:58:35;13.90;99.90
14378;DHT22;7272;53.668;9.578;2022-09-17T16:01:53;13.90;99.90
14378;DHT22;7272;53.668;9.578;2022-09-17T16:08:33;13.90;99.90
14378;DHT22;7272;53.668;9.578;2022-09-17T16:11:37;13.80;99.90
14378;DHT22;7272;53.668;9.578;2022-09-17T16:14:48;13.70;99.90
14378;DHT22;7272;53.668;9.578;2022-09-17T16:17:50;13.70;99.90
14378;DHT22;7272;53.668;9.578;2022-09-17T16:20:52;13.80;99.90
14378;DHT22;7272;53.668;9.578;2022-09-17T16:23:54;13.80;99.90
14378;DHT22;7272;53.668;9.578;2022-09-17T16:26:59;13.70;99.90
14378;DHT22;7272;53.668;9.578;2022-09-17T16:30:03;13.50;99.90
14378;DHT22;7272;53.668;9.578;2022-09-17T16:33:05;13.50;99.90
14378;DHT22;7272;53.668;9.578;2022-09-17T16:36:07;13.40;99.90
14378;DHT22;7272;53.668;9.578;2022-09-17T16:39:09;13.40;99.90
14378;DHT22;7272;53.668;9.578;2022-09-17T16:42:13;13.40;99.90
14378;DHT22;7272;53.668;9.578;2022-09-17T16:45:15;13.40;99.90
14378;DHT22;7272;53.668;9.578;2022-09-17T16:48:17;13.50;99.90
14378;DHT22;7272;53.668;9.578;2022-09-17T16:51:19;13.50;99.90
14378;DHT22;7272;53.668;9.578;2022-09-17T16:54:21;13.50;99.90
14378;DHT22;7272;53.668;9.578;2022-09-17T16:57:24;13.50;99.90
14378;DHT22;7272;53.668;9.578;2022-09-17T17:00:26;13.50;99.90
14378;DHT22;7272;53.668;9.578;2022-09-17T17:03:28;13.50;99.90
14378;DHT22;7272;53.668;9.578;2022-09-17T17:06:30;13.50;99.90
14378;DHT22;7272;53.668;9.578;2022-09-17T17:09:32;13.60;99.90
14378;DHT22;7272;53.668;9.578;2022-09-17T17:12:36;13.60;99.90
14378;DHT22;7272;53.668;9.578;2022-09-17T17:15:39;13.60;99.90
14378;DHT22;7272;53.668;9.578;2022-09-17T17:18:41;13.70;99.90
14378;DHT22;7272;53.668;9.578;2022-09-17T17:21:44;13.70;99.90
14378;DHT22;7272;53.668;9.578;2022-09-17T17:24:46;13.70;99.90
14378;DHT22;7272;53.668;9.578;2022-09-17T17:27:49;13.70;99.90
14378;DHT22;7272;53.668;9.578;2022-09-17T17:30:51;13.70;99.90
14378;DHT22;7272;53.668;9.578;2022-09-17T17:33:53;13.60;99.90
14378;DHT22;7272;53.668;9.578;2022-09-17T17:36:55;13.70;99.90
14378;DHT22;7272;53.668;9.578;2022-09-17T17:39:57;13.80;99.90
14378;DHT22;7272;53.668;9.578;2022-09-17T17:43:00;13.70;99.90
14378;DHT22;7272;53.668;9.578;2022-09-17T17:46:05;13.60;99.90
14378;DHT22;7272;53.668;9.578;2022-09-17T17:49:07;13.60;99.90
14378;DHT22;7272;53.668;9.578;2022-09-17T17:52:09;13.60;99.90
14378;DHT22;7272;53.668;9.578;2022-09-17T17:55:11;13.60;99.90
14378;DHT22;7272;53.668;9.578;2022-09-17T17:58:14;13.60;99.90
14378;DHT22;7272;53.668;9.578;2022-09-17T18:01:18;13.60;99.90
14378;DHT22;7272;53.668;9.578;2022-09-17T18:04:20;13.70;99.90
14378;DHT22;7272;53.668;9.578;2022-09-17T18:07:22;13.70;99.90
14378;DHT22;7272;53.668;9.578;2022-09-17T18:10:24;13.70;99.90
14378;DHT22;7272;53.668;9.578;2022-09-17T18:13:27;13.70;99.90
14378;DHT22;7272;53.668;9.578;2022-09-17T18:16:29;13.70;99.90
14378;DHT22;7272;53.668;9.578;2022-09-17T18:19:31;13.60;99.90
14378;DHT22;7272;53.668;9.578;2022-09-17T18:22:33;13.60;99.90
14378;DHT22;7272;53.668;9.578;2022-09-17T18:25:35;13.60;99.90
14378;DHT22;7272;53.668;9.578;2022-09-17T18:28:38;13.60;99.90
14378;DHT22;7272;53.668;9.578;2022-09-17T18:31:40;13.60;99.90
14378;DHT22;7272;53.668;9.578;2022-09-17T18:34:44;13.50;99.90
14378;DHT22;7272;53.668;9.578;2022-09-17T18:37:46;13.50;99.90
14378;DHT22;7272;53.668;9.578;2022-09-17T18:40:48;13.40;99.90
14378;DHT22;7272;53.668;9.578;2022-09-17T18:43:51;13.30;99.90
14378;DHT22;7272;53.668;9.578;2022-09-17T18:46:53;13.40;99.90
14378;DHT22;7272;53.668;9.578;2022-09-17T18:49:55;13.30;99.90
14378;DHT22;7272;53.668;9.578;2022-09-17T18:52:57;13.30;99.90
14378;DHT22;7272;53.668;9.578;2022-09-17T18:56:02;13.40;99.90
14378;DHT22;7272;53.668;9.578;2022-09-17T18:59:07;13.50;99.90
14378;DHT22;7272;53.668;9.578;2022-09-17T19:02:10;13.40;99.90
14378;DHT22;7272;53.668;9.578;2022-09-17T19:05:13;13.40;99.90
14378;DHT22;7272;53.668;9.578;2022-09-17T19:08:20;13.40;99.90
14378;DHT22;7272;53.668;9.578;2022-09-17T19:11:22;13.30;99.90
14378;DHT22;7272;53.668;9.578;2022-09-17T19:14:25;13.30;99.90
14378;DHT22;7272;53.668;9.578;2022-09-17T19:17:27;13.30;99.90
14378;DHT22;7272;53.668;9.578;2022-09-17T19:20:29;13.30;99.90
14378;DHT22;7272;53.668;9.578;2022-09-17T19:23:39;13.30;99.90
14378;DHT22;7272;53.668;9.578;2022-09-17T19:26:41;13.40;99.90
14378;DHT22;7272;53.668;9.578;2022-09-17T19:29:44;13.30;99.90
14378;DHT22;7272;53.668;9.578;2022-09-17T19:32:46;13.30;99.90
14378;DHT22;7272;53.668;9.578;2022-09-17T19:35:47;13.20;99.90
14378;DHT22;7272;53.668;9.578;2022-09-17T19:38:50;13.20;99.90
14378;DHT22;7272;53.668;9.578;2022-09-17T19:41:52;13.20;99.90
14378;DHT22;7272;53.668;9.578;2022-09-17T19:44:55;13.10;99.90
14378;DHT22;7272;53.668;9.578;2022-09-17T19:47:57;13.10;99.90
14378;DHT22;7272;53.668;9.578;2022-09-17T19:51:01;13.30;99.90
14378;DHT22;7272;53.668;9.578;2022-09-17T19:54:03;13.30;99.90
14378;DHT22;7272;53.668;9.578;2022-09-17T19:57:06;13.40;99.90
14378;DHT22;7272;53.668;9.578;2022-09-17T20:00:10;13.30;99.90
14378;DHT22;7272;53.668;9.578;2022-09-17T20:03:12;13.20;99.90
14378;DHT22;7272;53.668;9.578;2022-09-17T20:06:16;13.10;99.90
14378;DHT22;7272;53.668;9.578;2022-09-17T20:09:18;13.10;99.90
14378;DHT22;7272;53.668;9.578;2022-09-17T20:12:20;13.10;99.90
14378;DHT22;7272;53.668;9.578;2022-09-17T20:15:23;13.10;99.90
14378;DHT22;7272;53.668;9.578;2022-09-17T20:18:25;13.10;99.90
14378;DHT22;7272;53.668;9.578;2022-09-17T20:21:28;13.10;99.90
14378;DHT22;7272;53.668;9.578;2022-09-17T20:24:30;13.10;99.90
14378;DHT22;7272;53.668;9.578;2022-09-17T20:27:33;13.00;99.90
14378;DHT22;7272;53.668;9.578;2022-09-17T20:30:36;13.00;99.90
14378;DHT22;7272;53.668;9.578;2022-09-17T20:33:38;13.10;99.90
14378;DHT22;7272;53.668;9.578;2022-09-17T20:36:40;13.00;99.90
14378;DHT22;7272;53.668;9.578;2022-09-17T20:39:42;13.00;99.90